FAHS/HDS METAR and TAF weather

Enter ICAO airport designator
Station Type Date Time Source
FAHS METAR 2019/10/23 08:00 UTC NOAA

FAHS 230800Z AUTO 11003KT //// // ////// 22/16 Q1015


Station Type Date Time Source
FAHS Decoded METAR 2019/10/23 08:00 UTC NOAA

Hoedspruit, South Africa (FAHS) 24-22S 031-02E 500M
Oct 23, 2019 - 04:00 AM EDT / 2019.10.23 0800 UTC
Wind: from the ESE (110 degrees) at 3 MPH (3 KT):0
Temperature: 71 F (22 C)
Dew Point: 60 F (16 C)
Relative Humidity: 68%
Pressure (altimeter): 29.97 in. Hg (1015 hPa)
ob: FAHS 230800Z AUTO 11003KT //// // ////// 22/16 Q1015
cycle: 8

Station Type Date Time Source
FAHS TAF 2017/05/23 04:01 UTC NOAA

TAF FAHS 230300Z 2304/2315 VRB02KT CAVOK TX29/2312ZTN12/2304Z

Example: see airport list